首页
METAR-TAF:

METAR-TAF

机场 :

卡尔维, 法国

纬度: 42-32N, 经度: 008-48E, 海拔: 64米

当前天气观测

该预报发布于28分钟前的06:30 UTC
风速4节,风向,在东南南转西南之间变化
温度 16°C
湿度 72%
气压 1013 hPa
能见度10公里或以上
1500米以下无云,无积雨云

METAR: LFKC 200630Z AUTO 17004KT 130V200 CAVOK 16/11 Q1013 NOSIG

时间: 08:58 (06:58 UTC)

预报

该预报发布于4小时和58分钟前的02:00 UTC
预报有效从20日的 03点(UTC)到 21日的 03点(UTC)
风速4节,风向南转西南
能见度10公里或以上
1500米以下无云,无积雨云
成为
从 20日的 07点(UTC)到 20日的 10点(UTC)
风速6节,风向北转西北

TAF: LFKC 200200Z 2003/2103 20004KT CAVOK TX28/2012Z TN14/2003Z BECMG 2007/2010 34006KT

超过4000个机场的气象观测和天气预报(METAR&TAF报告)。

可查询的气象台以黄色和红色小点在地图上表示。

将鼠标移到小点上方,可查看气象台名称。

然后点击查看天气观测和预报。

如需切换地图:点击带黑十字的绿色按钮放大地图;点击带横线的绿色按钮缩小地图;或者点击绿色箭头查看邻近地区的地图。


METAR-TAF: